Rhuddlan, United Kingdom
Current Conditions -  °F | °C
As of 10:20 AM on Monday 20 Oct 2014 (Local Time) from EGNR Reporting Station
Moderate Rain Moderate Rain  
Wind Chill: 13°   Ceiling: 4800
Heat Index: 13°   Visibility: 6mi
Dew Point: 11°   Wind: 12mph
Humidity: 88%   Direction: 220°SW
Pressure: 29.91"   Gusts: NA
Location:  53.28°N, 3.47°W
Report Text: EGNR 200920Z 22010KT 9000 RA SCT041 BKN048 13/11 Q1013
Loading
Personal Weather Stations






























Interactive Weather Map
Tropical Storm Tracking
New forecast layout! Learn more

10-Day Weather Forecast

Advertisements
Track Severe Weather on mobile